Time;durP1;ratioP1;P1;durP2;ratioP2;P2;SDS_P1;SDS_P2;PMS_P1;PMS_P2;Temp;Humidity;BMP_temperature;BMP_pressure;BME280_temperature;BME280_humidity;BME280_pressure;Samples;Min_cycle;Max_cycle;Signal;HPM_P1;HPM_P2
2022/09/16 00:00:21;;;;;;;11.23;9.30;;;;;;;19.93;100.00;99028.60;1685886;85;21075;-63
2022/09/16 00:02:51;;;;;;;13.27;9.27;;;;;;;19.96;100.00;99029.89;1686032;83;21114;-63
2022/09/16 00:05:18;;;;;;;11.20;10.03;;;;;;;19.91;100.00;99022.78;1683665;84;21455;-61
2022/09/16 00:07:47;;;;;;;11.87;10.03;;;;;;;19.88;100.00;99028.61;1683544;85;21172;-59
2022/09/16 00:10:14;;;;;;;11.37;10.20;;;;;;;19.85;100.00;99029.16;1683567;85;21479;-72
2022/09/16 00:12:42;;;;;;;10.67;9.60;;;;;;;19.88;100.00;99022.00;1683090;85;20964;-60
2022/09/16 00:15:10;;;;;;;13.70;10.30;;;;;;;19.90;100.00;99013.27;1682976;84;21103;-60
2022/09/16 00:17:38;;;;;;;12.50;10.87;;;;;;;20.05;100.00;99015.81;1683360;85;20912;-60
2022/09/16 00:20:06;;;;;;;12.83;10.63;;;;;;;19.97;100.00;99023.02;1683905;85;21366;-59
2022/09/16 00:22:34;;;;;;;11.00;9.70;;;;;;;19.97;100.00;99015.08;1683091;85;20984;-60
2022/09/16 00:25:04;;;;;;;13.07;10.17;;;;;;;19.93;100.00;99014.05;1682975;83;21316;-59
2022/09/16 00:27:31;;;;;;;14.13;11.37;;;;;;;19.89;100.00;99014.34;1683554;85;20940;-59
2022/09/16 00:29:59;;;;;;;10.93;9.83;;;;;;;19.83;100.00;99016.75;1683404;83;21039;-59
2022/09/16 00:32:26;;;;;;;12.10;10.73;;;;;;;19.92;100.00;99010.59;1683423;84;22098;-64
2022/09/16 00:34:53;;;;;;;12.10;9.43;;;;;;;19.92;100.00;99004.52;1683422;85;22052;-59
2022/09/16 00:37:21;;;;;;;14.63;10.80;;;;;;;19.98;100.00;99008.72;1683809;84;21565;-59
2022/09/16 00:39:48;;;;;;;11.97;10.07;;;;;;;19.97;100.00;98999.21;1683717;85;21584;-59
2022/09/16 00:42:16;;;;;;;10.97;9.97;;;;;;;20.00;100.00;99007.92;1683767;85;20964;-59
2022/09/16 00:45:01;;;;;;;11.77;10.07;;;;;;;19.97;100.00;99005.83;1683095;85;21137;-72
2022/09/16 00:47:48;;;;;;;11.30;10.20;;;;;;;19.91;100.00;99008.23;1683789;83;20987;-60
2022/09/16 00:50:27;;;;;;;11.90;10.53;;;;;;;19.66;100.00;99008.66;1682864;84;20908;-72
2022/09/16 00:52:54;;;;;;;13.00;11.10;;;;;;;19.72;100.00;99011.27;1683785;85;21932;-58
2022/09/16 00:55:25;;;;;;;10.93;9.83;;;;;;;19.70;100.00;99014.20;1683565;85;21027;-59
2022/09/16 00:57:52;;;;;;;16.02;11.35;;;;;;;19.70;100.00;99014.20;1684053;84;21271;-72
2022/09/16 01:00:19;;;;;;;12.47;11.27;;;;;;;19.73;100.00;99012.30;1682945;85;21046;-63
2022/09/16 01:02:47;;;;;;;11.50;10.43;;;;;;;19.70;100.00;99010.23;1683556;85;21816;-60
2022/09/16 01:05:18;;;;;;;12.63;11.10;;;;;;;19.77;100.00;99009.91;1677624;84;21557;-59
2022/09/16 01:07:48;;;;;;;14.05;12.58;;;;;;;19.74;100.00;99009.16;1676093;85;21024;-59
2022/09/16 01:10:18;;;;;;;14.53;12.17;;;;;;;19.55;100.00;99012.39;1675258;84;21133;-70
2022/09/16 01:12:54;;;;;;;14.50;13.00;;;;;;;19.80;100.00;99014.11;1675651;85;21246;-59
2022/09/16 01:15:23;;;;;;;14.43;12.73;;;;;;;19.75;100.00;99022.09;1675644;85;21561;-59
2022/09/16 01:18:17;;;;;;;14.23;12.73;;;;;;;19.75;100.00;99019.98;1675224;85;21513;-70
2022/09/16 01:20:55;;;;;;;15.03;13.60;;;;;;;19.67;100.00;99023.45;1673944;85;21082;-59
2022/09/16 01:23:54;;;;;;;13.80;12.47;;;;;;;19.71;100.00;99022.38;1675107;84;21107;-67
2022/09/16 01:26:58;;;;;;;14.90;13.33;;;;;;;19.74;100.00;99018.41;1675708;85;21490;-59
2022/09/16 01:30:01;;;;;;;18.73;13.97;;;;;;;19.81;100.00;99018.87;1675513;85;21408;-59
2022/09/16 01:33:00;;;;;;;14.77;13.30;;;;;;;19.84;100.00;99011.72;1674979;85;21015;-59
2022/09/16 01:35:56;;;;;;;15.80;14.17;;;;;;;19.95;100.00;99015.88;1676471;85;20965;-58
2022/09/16 01:38:47;;;;;;;16.43;14.73;;;;;;;19.99;100.00;99013.47;1675884;85;22662;-57
2022/09/16 01:41:34;;;;;;;16.25;13.75;;;;;;;19.98;100.00;99002.64;1674945;85;20909;-62
2022/09/16 01:44:12;;;;;;;16.03;12.10;;;;;;;20.17;100.00;99006.98;1675511;85;21016;-60
2022/09/16 01:47:03;;;;;;;14.23;12.43;;;;;;;20.20;100.00;99003.01;1675280;84;21008;-63
2022/09/16 01:49:52;;;;;;;;;;;;;;;20.20;100.00;99002.22;1678098;85;21009;-59
2022/09/16 01:52:42;;;;;;;16.20;14.60;;;;;;;20.12;100.00;99004.92;1674880;85;21221;-60
2022/09/16 01:55:14;;;;;;;14.90;13.47;;;;;;;20.18;100.00;99003.27;1676126;84;21572;-59
2022/09/16 01:58:01;;;;;;;15.13;13.60;;;;;;;20.17;100.00;99006.20;1674892;85;21060;-60
2022/09/16 02:00:29;;;;;;;14.20;12.83;;;;;;;20.26;100.00;99007.72;1675591;85;21068;-59
2022/09/16 02:03:07;;;;;;;15.33;12.70;;;;;;;20.24;100.00;99005.36;1675093;85;21067;-61
2022/09/16 02:05:57;;;;;;;13.63;12.27;;;;;;;20.16;100.00;99002.77;1675230;83;21137;-70
2022/09/16 02:08:39;;;;;;;13.67;12.27;;;;;;;20.13;100.00;99000.67;1674694;85;20989;-72
2022/09/16 02:11:07;;;;;;;;;;;;;;;20.10;100.00;99001.22;1677721;85;20996;-60
2022/09/16 02:13:38;;;;;;;14.90;13.40;;;;;;;20.28;100.00;99001.63;1675702;84;20357;-59
2022/09/16 02:16:17;;;;;;;14.73;12.77;;;;;;;20.23;100.00;99004.30;1675673;85;20972;-60
2022/09/16 02:18:49;;;;;;;13.10;11.80;;;;;;;20.17;100.00;99004.88;1674972;85;21460;-68
2022/09/16 02:21:16;;;;;;;14.47;12.40;;;;;;;20.19;100.00;99005.38;1675467;85;21517;-59
2022/09/16 02:23:50;;;;;;;12.87;11.57;;;;;;;20.26;100.00;99007.17;1675464;85;20997;-59
2022/09/16 02:26:22;;;;;;;13.40;11.97;;;;;;;20.22;100.00;99003.51;1675198;85;21009;-59
2022/09/16 02:28:50;;;;;;;12.47;11.17;;;;;;;20.21;100.00;98997.18;1675238;85;21086;-60
2022/09/16 02:31:20;;;;;;;13.27;10.97;;;;;;;20.24;100.00;98992.66;1675676;85;22267;-59
2022/09/16 02:33:52;;;;;;;12.70;10.87;;;;;;;20.18;100.00;98990.04;1675693;85;21016;-59
2022/09/16 02:36:21;;;;;;;13.03;11.23;;;;;;;20.23;100.00;98987.09;1648355;85;21133;-59
2022/09/16 02:39:03;;;;;;;11.83;10.63;;;;;;;20.25;100.00;98989.73;1675194;85;21424;-66
2022/09/16 02:41:30;;;;;;;;;;;;;;;20.28;100.00;98988.39;1677995;84;21044;-59
2022/09/16 02:43:57;;;;;;;13.87;12.47;;;;;;;20.22;100.00;98990.28;1674768;85;21140;-60
2022/09/16 02:46:45;;;;;;;14.53;11.73;;;;;;;20.18;100.00;98989.25;1675599;85;21138;-60
2022/09/16 02:49:41;;;;;;;12.57;11.17;;;;;;;20.14;100.00;98989.02;1676100;84;22005;-59
2022/09/16 02:52:41;;;;;;;11.83;10.83;;;;;;;20.13;100.00;98993.27;1675450;85;21065;-61
2022/09/16 02:55:42;;;;;;;13.50;11.00;;;;;;;20.17;100.00;98989.79;1675605;85;21512;-60
2022/09/16 02:58:09;;;;;;;12.10;10.95;;;;;;;20.16;100.00;98991.41;1674956;85;21144;-59
2022/09/16 03:00:42;;;;;;;13.30;11.63;;;;;;;20.14;100.00;99000.92;1675468;85;21003;-58
2022/09/16 03:03:09;;;;;;;;;;;;;;;20.17;100.00;99013.60;1678414;85;21470;-59
2022/09/16 03:05:41;;;;;;;13.83;12.33;;;;;;;20.22;100.00;99010.66;1681959;84;20474;-58
2022/09/16 03:08:08;;;;;;;13.78;12.45;;;;;;;20.16;100.00;99013.35;1654977;85;21804;-71
2022/09/16 03:10:40;;;;;;;13.07;11.87;;;;;;;20.06;100.00;99020.03;1686255;85;21611;-58
2022/09/16 03:13:24;;;;;;;13.70;12.40;;;;;;;20.17;100.00;99018.89;1686166;85;21099;-72
2022/09/16 03:15:59;;;;;;;12.30;11.10;;;;;;;20.08;100.00;99021.88;1685550;83;21506;-70
2022/09/16 03:18:31;;;;;;;14.03;12.57;;;;;;;20.12;100.00;99014.97;1686625;85;21899;-58
2022/09/16 03:21:18;;;;;;;12.47;11.27;;;;;;;20.05;100.00;99025.08;1685883;85;20968;-64
2022/09/16 03:23:58;;;;;;;15.03;13.43;;;;;;;19.93;100.00;99027.28;1685802;85;21458;-58
2022/09/16 03:26:33;;;;;;;14.63;13.20;;;;;;;20.07;100.00;99027.43;1686371;85;20940;-59
2022/09/16 03:29:25;;;;;;;15.20;13.63;;;;;;;20.09;100.00;99038.01;1660423;85;21023;-59
2022/09/16 03:32:04;;;;;;;15.37;13.83;;;;;;;20.10;100.00;99036.15;1686552;85;21056;-59
2022/09/16 03:35:02;;;;;;;15.23;13.47;;;;;;;20.00;100.00;99035.70;1686189;85;21493;-58
2022/09/16 03:37:33;;;;;;;17.17;15.47;;;;;;;20.14;100.00;99030.02;1685937;85;21163;-59
2022/09/16 03:40:03;;;;;;;16.73;15.03;;;;;;;20.07;100.00;99041.98;1685641;85;21007;-58
2022/09/16 03:42:31;;;;;;;16.00;14.33;;;;;;;20.08;100.00;99042.27;1658069;85;28413;-69
2022/09/16 03:44:58;;;;;;;16.80;14.50;;;;;;;20.15;100.00;99042.20;1686110;85;22165;-60
2022/09/16 03:47:25;;;;;;;17.37;15.43;;;;;;;20.20;100.00;99044.56;1686325;85;21134;-70
2022/09/16 03:49:53;;;;;;;18.00;16.27;;;;;;;20.30;100.00;99052.41;1686009;85;21151;-59
2022/09/16 03:52:20;;;;;;;17.40;15.80;;;;;;;20.52;100.00;99048.81;1686141;85;21059;-60
2022/09/16 03:54:48;;;;;;;18.27;16.57;;;;;;;21.03;100.00;99042.27;1685941;85;20976;-58
2022/09/16 03:57:15;;;;;;;17.30;15.63;;;;;;;21.66;100.00;99050.55;1686421;85;21066;-59
2022/09/16 03:59:42;;;;;;;17.97;16.07;;;;;;;22.39;100.00;99042.09;1685488;85;21044;-58
2022/09/16 04:02:09;;;;;;;16.60;14.47;;;;;;;22.70;100.00;99042.91;1686317;85;21531;-59
2022/09/16 04:04:36;;;;;;;16.27;14.67;;;;;;;22.42;100.00;99041.49;1685709;84;20916;-72
2022/09/16 04:07:03;;;;;;;16.17;14.47;;;;;;;22.43;100.00;99045.75;1686266;85;21079;-59
2022/09/16 04:09:31;;;;;;;16.07;14.47;;;;;;;22.28;100.00;99041.47;1686009;85;21797;-73
2022/09/16 04:11:58;;;;;;;15.93;14.43;;;;;;;22.09;100.00;99039.34;1685912;85;21023;-58
2022/09/16 04:14:26;;;;;;;16.23;14.60;;;;;;;22.07;100.00;99042.27;1686184;85;21464;-59
2022/09/16 04:16:54;;;;;;;17.20;15.47;;;;;;;22.05;100.00;99043.12;1685920;85;21007;-59
2022/09/16 04:19:20;;;;;;;16.70;15.00;;;;;;;;;;1686182;85;21552;-57
2022/09/16 04:21:48;;;;;;;18.00;16.07;;;;;;;21.92;100.00;99043.83;1686011;84;20952;-61
2022/09/16 04:24:16;;;;;;;18.80;16.97;;;;;;;21.86;100.00;99034.38;1686243;85;21047;-58
2022/09/16 04:26:43;;;;;;;17.53;15.83;;;;;;;21.76;100.00;99031.86;1685846;85;21138;-59
2022/09/16 04:29:10;;;;;;;19.40;17.47;;;;;;;21.51;100.00;99032.43;1686093;85;21418;-59
2022/09/16 04:31:39;;;;;;;19.07;17.27;;;;;;;21.53;100.00;99043.55;1686366;85;21659;-63
2022/09/16 04:34:06;;;;;;;19.27;17.27;;;;;;;21.67;100.00;99056.10;1685994;85;21082;-59
2022/09/16 04:36:34;;;;;;;19.97;17.97;;;;;;;21.67;100.00;99048.96;1686367;85;21402;-59
2022/09/16 04:39:02;;;;;;;20.43;17.93;;;;;;;21.65;100.00;99052.96;1686122;85;21815;-58
2022/09/16 04:41:29;;;;;;;21.07;18.93;;;;;;;21.61;100.00;99054.85;1686111;85;21046;-58
2022/09/16 04:43:58;;;;;;;19.53;17.63;;;;;;;21.64;100.00;99040.78;1685905;85;21072;-59
2022/09/16 04:46:26;;;;;;;20.77;18.70;;;;;;;21.61;100.00;99038.94;1685820;85;21506;-60
2022/09/16 04:48:54;;;;;;;20.63;18.50;;;;;;;21.62;100.00;99037.86;1686061;85;21032;-59
2022/09/16 04:51:22;;;;;;;20.00;18.10;;;;;;;21.57;100.00;99036.61;1686327;85;21273;-58
2022/09/16 04:53:49;;;;;;;19.97;18.00;;;;;;;21.69;100.00;99048.66;1685747;85;21078;-59
2022/09/16 04:56:19;;;;;;;21.50;19.30;;;;;;;21.77;100.00;99049.34;1685959;85;21431;-58
2022/09/16 04:58:48;;;;;;;21.83;19.53;;;;;;;21.79;100.00;99053.84;1685871;85;21568;-58
2022/09/16 05:01:24;;;;;;;20.27;18.30;;;;;;;21.68;100.00;99051.86;1686121;85;21034;-58
2022/09/16 05:03:57;;;;;;;21.33;19.27;;;;;;;21.72;100.00;99057.38;1685663;85;21970;-59
2022/09/16 05:06:27;;;;;;;20.97;18.70;;;;;;;21.73;100.00;99058.41;1678454;84;20992;-58
2022/09/16 05:08:55;;;;;;;21.40;19.30;;;;;;;21.79;100.00;99047.99;1675233;85;20945;-59
2022/09/16 05:11:32;;;;;;;21.00;18.87;;;;;;;21.87;100.00;99039.92;1675533;85;20921;-63
2022/09/16 05:14:02;;;;;;;20.73;18.60;;;;;;;22.06;100.00;99038.05;1675100;85;21402;-59
2022/09/16 05:16:29;;;;;;;19.67;17.73;;;;;;;22.13;100.00;99035.58;1675983;85;21285;-58
2022/09/16 05:18:57;;;;;;;19.80;17.70;;;;;;;22.22;100.00;99040.50;1675426;85;20897;-59
2022/09/16 05:21:25;;;;;;;20.53;18.63;;;;;;;22.36;100.00;99042.67;1675726;84;21060;-67
2022/09/16 05:23:52;;;;;;;18.43;16.73;;;;;;;22.52;100.00;99043.98;1675046;85;21298;-70
2022/09/16 05:26:23;;;;;;;19.70;17.80;;;;;;;22.70;100.00;99049.01;1675591;85;21513;-58
2022/09/16 05:28:50;;;;;;;20.53;18.43;;;;;;;22.95;100.00;99054.42;1675572;85;21230;-58
2022/09/16 05:31:23;;;;;;;19.90;17.80;;;;;;;22.93;100.00;99052.61;1675434;84;21127;-62
2022/09/16 05:33:59;;;;;;;20.23;18.23;;;;;;;22.94;100.00;99053.39;1675330;84;21004;-72
2022/09/16 05:36:26;;;;;;;19.93;18.00;;;;;;;22.74;100.00;99049.21;1675234;85;21051;-58
2022/09/16 05:38:53;;;;;;;20.80;18.80;;;;;;;22.77;100.00;99045.98;1675889;85;21056;-59
2022/09/16 05:41:21;;;;;;;19.37;17.57;;;;;;;22.78;100.00;99043.56;1675234;85;21677;-58
2022/09/16 05:43:50;;;;;;;20.80;18.50;;;;;;;22.92;100.00;99047.58;1675170;85;37579;-58
2022/09/16 05:46:20;;;;;;;20.77;18.67;;;;;;;22.90;100.00;99055.03;1675783;85;21472;-59
2022/09/16 05:48:47;;;;;;;19.47;17.57;;;;;;;22.95;100.00;99046.45;1675741;85;21486;-67
2022/09/16 05:51:17;;;;;;;19.87;17.97;;;;;;;22.91;100.00;99051.29;1675427;85;20933;-59
2022/09/16 05:53:44;;;;;;;19.77;17.67;;;;;;;22.90;100.00;99051.84;1675066;85;21911;-60
2022/09/16 05:56:20;;;;;;;20.87;18.77;;;;;;;22.84;100.00;99054.33;1675733;85;21055;-58
2022/09/16 05:58:47;;;;;;;21.13;19.03;;;;;;;22.85;100.00;99055.14;1675107;85;20960;-70
2022/09/16 06:01:17;;;;;;;21.10;19.10;;;;;;;22.77;100.00;99053.95;1675701;85;21456;-70
2022/09/16 06:03:45;;;;;;;21.80;19.42;;;;;;;22.97;100.00;99054.92;1675657;84;20981;-58
2022/09/16 06:06:20;;;;;;;19.30;17.30;;;;;;;22.98;100.00;99049.06;1679167;84;21860;-58
2022/09/16 06:08:47;;;;;;;17.57;15.53;;;;;;;23.06;100.00;99045.17;1678746;85;20960;-59
2022/09/16 06:11:16;;;;;;;20.97;16.70;;;;;;;23.05;100.00;99042.28;1683422;85;21022;-73
2022/09/16 06:13:43;;;;;;;17.47;15.53;;;;;;;23.08;100.00;99038.80;1683361;85;21064;-58
2022/09/16 06:16:10;;;;;;;16.30;14.30;;;;;;;23.17;100.00;99038.34;1683827;85;21051;-58
2022/09/16 06:18:38;;;;;;;15.70;14.20;;;;;;;23.20;100.00;99041.75;1682794;85;21272;-59
2022/09/16 06:21:07;;;;;;;17.80;14.27;;;;;;;23.22;100.00;99039.56;1683642;85;21429;-60
2022/09/16 06:23:35;;;;;;;14.57;13.17;;;;;;;23.30;100.00;99038.90;1683041;85;20944;-58
2022/09/16 06:26:13;;;;;;;14.67;12.93;;;;;;;23.24;100.00;99046.72;1683666;85;21470;-58
2022/09/16 06:28:40;;;;;;;14.53;13.03;;;;;;;23.27;100.00;99045.58;1683747;83;21082;-58
2022/09/16 06:31:11;;;;;;;14.97;13.43;;;;;;;23.32;100.00;99050.01;1683597;85;21513;-74
2022/09/16 06:33:38;;;;;;;17.65;13.80;;;;;;;22.94;100.00;99052.85;1683506;85;21091;-58
2022/09/16 06:36:11;;;;;;;16.47;14.67;;;;;;;22.77;100.00;99053.95;1683663;85;21489;-59
2022/09/16 06:38:39;;;;;;;14.30;12.80;;;;;;;22.59;100.00;99047.06;1683661;85;21353;-58
2022/09/16 06:41:08;;;;;;;18.80;16.80;;;;;;;22.62;100.00;99051.02;1682927;85;21442;-58
2022/09/16 06:43:35;;;;;;;16.67;14.97;;;;;;;22.59;100.00;99051.59;1683134;85;21487;-58
2022/09/16 06:46:12;;;;;;;17.77;15.97;;;;;;;22.55;100.00;99047.39;1683382;85;20964;-65
2022/09/16 06:48:39;;;;;;;18.63;16.43;;;;;;;22.65;100.00;99057.05;1683515;84;21540;-74
2022/09/16 06:51:09;;;;;;;17.33;15.63;;;;;;;22.91;100.00;99057.94;1683145;85;20944;-58
2022/09/16 06:53:37;;;;;;;17.07;15.35;;;;;;;22.94;100.00;99062.70;1683613;85;21859;-60
2022/09/16 06:56:07;;;;;;;16.20;14.70;;;;;;;22.90;100.00;99058.48;1683009;85;21275;-60
2022/09/16 06:58:35;;;;;;;16.20;14.60;;;;;;;23.05;100.00;99056.90;1683491;85;21398;-58
2022/09/16 07:01:16;;;;;;;16.30;14.70;;;;;;;23.13;100.00;99063.40;1683291;85;21506;-72
2022/09/16 07:03:45;;;;;;;17.92;16.12;;;;;;;23.26;100.00;99064.47;1683225;85;21578;-68
2022/09/16 07:06:13;;;;;;;16.80;15.17;;;;;;;23.32;100.00;99068.62;1683359;84;21020;-58
2022/09/16 07:08:41;;;;;;;16.60;14.90;;;;;;;23.49;100.00;99060.05;1683413;85;21963;-75
2022/09/16 07:11:18;;;;;;;16.93;15.33;;;;;;;23.62;100.00;99051.80;1682887;84;21003;-61
2022/09/16 07:13:46;;;;;;;16.93;15.33;;;;;;;23.71;100.00;99062.00;1682992;85;21016;-60
2022/09/16 07:16:22;;;;;;;17.90;15.43;;;;;;;23.74;100.00;99054.76;1683606;85;21082;-58
2022/09/16 07:18:54;;;;;;;18.43;16.73;;;;;;;23.86;100.00;99058.23;1683551;85;21012;-59
2022/09/16 07:21:24;;;;;;;18.00;16.13;;;;;;;23.75;100.00;99054.99;1683798;85;21291;-58
2022/09/16 07:23:57;;;;;;;17.23;15.40;;;;;;;23.86;100.00;99044.92;1682982;85;21052;-60
2022/09/16 07:26:27;;;;;;;16.70;15.10;;;;;;;24.10;100.00;99036.67;1683467;84;21371;-58
2022/09/16 07:28:54;;;;;;;18.23;16.33;;;;;;;24.41;100.00;99024.77;1683305;85;21056;-59
2022/09/16 07:31:24;;;;;;;16.63;14.87;;;;;;;24.63;100.00;99026.62;1683475;85;22052;-59
2022/09/16 07:33:54;;;;;;;16.83;15.03;;;;;;;24.73;100.00;99026.33;1682935;85;21899;-60
2022/09/16 07:36:25;;;;;;;17.47;15.77;;;;;;;24.92;100.00;99026.88;1683587;85;21416;-59
2022/09/16 07:38:53;;;;;;;17.95;16.20;;;;;;;25.13;100.00;99029.83;1683150;85;24076;-59
2022/09/16 07:41:24;;;;;;;17.05;15.25;;;;;;;25.46;100.00;99035.56;1683452;85;21040;-59
2022/09/16 07:43:58;;;;;;;16.73;15.03;;;;;;;25.52;100.00;99032.73;1683500;85;21704;-60
2022/09/16 07:46:27;;;;;;;17.48;14.95;;;;;;;25.59;100.00;99045.06;1683026;85;21218;-60
2022/09/16 07:48:54;;;;;;;17.37;15.50;;;;;;;25.52;100.00;99044.73;1683508;85;21071;-60
2022/09/16 07:51:23;;;;;;;16.90;15.10;;;;;;;25.51;100.00;99040.51;1683721;85;21020;-60
2022/09/16 07:54:02;;;;;;;15.43;13.83;;;;;;;25.51;100.00;99046.63;1683248;85;21035;-60
2022/09/16 07:56:33;;;;;;;14.83;13.32;;;;;;;25.58;100.00;99042.17;1683685;85;21346;-60
2022/09/16 07:59:00;;;;;;;14.05;12.55;;;;;;;25.73;100.00;99020.36;1683590;85;21242;-60
2022/09/16 08:01:29;;;;;;;13.83;12.43;;;;;;;25.72;100.00;99026.78;1682780;85;21453;-61
2022/09/16 08:03:57;;;;;;;13.43;11.75;;;;;;;25.61;100.00;99032.99;1683352;85;21090;-69
2022/09/16 08:06:27;;;;;;;12.80;11.35;;;;;;;25.48;100.00;99021.34;1681735;84;21017;-59
2022/09/16 08:08:56;;;;;;;13.05;11.75;;;;;;;25.58;100.00;99008.27;1675492;85;21049;-59
2022/09/16 08:11:23;;;;;;;13.48;12.10;;;;;;;25.73;100.00;99016.36;1674924;85;21539;-61
2022/09/16 08:13:51;;;;;;;13.13;11.83;;;;;;;25.90;100.00;99019.05;1675522;85;21015;-60
2022/09/16 08:16:20;;;;;;;13.80;12.00;;;;;;;26.33;100.00;99007.54;1675023;85;21083;-60
2022/09/16 08:18:51;;;;;;;14.53;11.70;;;;;;;26.93;100.00;99011.13;1675634;85;21067;-59
2022/09/16 08:21:20;;;;;;;11.95;10.82;;;;;;;27.31;100.00;99011.09;1675251;85;20992;-61
2022/09/16 08:23:49;;;;;;;11.40;10.30;;;;;;;27.52;100.00;99007.67;1675471;85;21347;-73
2022/09/16 08:26:17;;;;;;;12.07;10.63;;;;;;;27.59;100.00;99014.63;1675241;85;21632;-60
2022/09/16 08:28:45;;;;;;;11.75;10.50;;;;;;;27.65;100.00;99011.97;1675803;85;21780;-61
2022/09/16 08:31:12;;;;;;;12.25;11.03;;;;;;;27.53;100.00;99010.57;1675158;85;20972;-69
2022/09/16 08:33:41;;;;;;;12.18;10.98;;;;;;;27.53;100.00;99010.57;1675469;84;21099;-59
2022/09/16 08:36:18;;;;;;;13.45;11.12;;;;;;;27.65;100.00;99011.44;1675624;85;21219;-62
2022/09/16 08:38:46;;;;;;;12.65;11.33;;;;;;;28.08;100.00;99013.55;1675685;85;21083;-61
2022/09/16 08:41:25;;;;;;;11.70;10.50;;;;;;;28.52;100.00;99009.88;1675404;85;20988;-61
2022/09/16 08:44:20;;;;;;;11.48;10.28;;;;;;;28.77;100.00;99006.68;1674761;85;21557;-61
2022/09/16 08:47:15;;;;;;;11.55;10.45;;;;;;;29.04;100.00;99009.28;1674911;84;21069;-62
2022/09/16 08:49:46;;;;;;;9.63;8.73;;;;;;;29.35;100.00;99004.66;1675080;85;22014;-62
2022/09/16 08:52:24;;;;;;;9.28;8.38;;;;;;;29.65;100.00;98996.34;1675256;85;21052;-60
2022/09/16 08:54:55;;;;;;;10.28;9.13;;;;;;;29.89;100.00;98992.23;1675670;85;21068;-73
2022/09/16 08:57:26;;;;;;;;;;;;;;;30.43;100.00;98985.58;1677858;85;21594;-60
2022/09/16 08:59:57;;;;;;;10.00;9.10;;;;;;;30.67;100.00;98994.81;1675479;85;20164;-60
2022/09/16 09:02:51;;;;;;;10.35;9.25;;;;;;;30.66;100.00;98994.60;1675651;84;21763;-58
2022/09/16 09:05:39;;;;;;;10.00;9.00;;;;;;;30.60;100.00;98995.98;1675538;84;21032;-58
2022/09/16 09:08:37;;;;;;;10.75;9.65;;;;;;;30.57;100.00;98987.26;1675465;84;21943;-58
2022/09/16 09:11:18;;;;;;;10.05;8.63;;;;;;;30.54;100.00;98983.38;1675404;85;20996;-61
2022/09/16 09:14:20;;;;;;;10.18;9.18;;;;;;;30.58;100.00;98980.77;1670794;85;20980;-59
2022/09/16 09:17:32;;;;;;;11.22;10.23;;;;;;;30.69;100.00;98984.50;1675483;85;21228;-58
2022/09/16 09:20:20;;;;;;;11.38;10.28;;;;;;;30.78;100.00;98982.42;1674966;85;20937;-59
2022/09/16 09:23:20;;;;;;;11.50;9.30;;;;;;;30.95;100.00;98984.52;1675521;85;21170;-58
2022/09/16 09:26:09;;;;;;;9.45;8.53;;;;;;;31.24;100.00;98984.02;1667172;84;22069;-69
2022/09/16 09:29:02;;;;;;;9.15;7.90;;;;;;;31.55;100.00;98978.34;1675775;85;21040;-60
2022/09/16 09:32:01;;;;;;;8.05;7.25;;;;;;;31.55;100.00;98986.42;1675329;85;21277;-57
2022/09/16 09:35:06;;;;;;;9.60;8.65;;;;;;;31.43;100.00;98974.44;1674992;84;21090;-58
2022/09/16 09:38:03;;;;;;;8.98;8.03;;;;;;;31.30;100.00;98966.27;1675734;85;21578;-57
2022/09/16 09:40:44;;;;;;;9.18;7.33;;;;;;;31.07;100.00;98962.91;1664292;84;21992;-58
2022/09/16 09:43:18;;;;;;;7.33;6.62;;;;;;;30.91;100.00;98966.17;1672487;85;21060;-70
2022/09/16 09:46:11;;;;;;;8.03;6.75;;;;;;;30.76;100.00;98965.06;1675133;85;21248;-59
2022/09/16 09:49:06;;;;;;;7.58;6.47;;;;;;;30.83;100.00;98962.54;1675200;85;20956;-70
2022/09/16 09:51:37;;;;;;;6.78;6.15;;;;;;;30.85;100.00;98958.17;1675742;85;21356;-58
2022/09/16 09:54:28;;;;;;;8.03;6.85;;;;;;;30.93;100.00;98961.23;1675567;84;21494;-58
2022/09/16 09:57:06;;;;;;;;;;;;;;;31.13;100.00;98964.73;1678026;85;21059;-59
2022/09/16 09:59:47;;;;;;;6.55;5.35;;;;;;;31.52;100.00;98967.49;1675315;84;21235;-72
2022/09/16 10:02:17;;;;;;;6.75;5.70;;;;;;;31.63;100.00;98961.20;1675510;85;20941;-63
2022/09/16 10:04:44;;;;;;;5.75;5.15;;;;;;;31.67;100.00;98959.91;1647040;85;21524;-58
2022/09/16 10:07:13;;;;;;;7.75;5.28;;;;;;;31.51;100.00;98969.41;1678659;84;21000;-66
2022/09/16 10:10:00;;;;;;;6.67;5.58;;;;;;;31.27;100.00;98969.09;1686313;83;21890;-59
2022/09/16 10:12:31;;;;;;;7.12;4.90;;;;;;;30.93;100.00;98970.08;1683935;85;21271;-59
2022/09/16 10:14:59;;;;;;;5.30;4.50;;;;;;;30.42;100.00;98966.52;1685750;85;21042;-61
2022/09/16 10:17:29;;;;;;;4.97;4.33;;;;;;;29.99;100.00;98969.45;1686172;85;21146;-58
2022/09/16 10:20:04;;;;;;;7.20;5.92;;;;;;;29.59;100.00;98966.27;1686072;85;21032;-58
2022/09/16 10:22:33;;;;;;;7.10;6.08;;;;;;;29.24;100.00;98968.09;1686078;85;21047;-58
2022/09/16 10:25:08;;;;;;;6.97;5.37;;;;;;;28.99;100.00;98966.59;1685960;85;21563;-59
2022/09/16 10:27:36;;;;;;;6.75;6.05;;;;;;;28.57;100.00;98969.47;1683237;85;21128;-59
2022/09/16 10:30:24;;;;;;;6.90;6.10;;;;;;;28.25;100.00;98964.35;1686574;83;21075;-58
2022/09/16 10:33:04;;;;;;;7.15;6.45;;;;;;;27.99;100.00;98959.26;1686360;83;21011;-58
2022/09/16 10:35:34;;;;;;;7.12;6.42;;;;;;;27.68;100.00;98965.81;1686126;85;21471;-58
2022/09/16 10:38:14;;;;;;;8.30;6.53;;;;;;;27.35;100.00;98957.19;1685952;85;21545;-61
2022/09/16 10:41:00;;;;;;;7.28;6.17;;;;;;;27.06;100.00;98969.22;1685931;85;20980;-69
2022/09/16 10:43:28;;;;;;;8.83;7.08;;;;;;;26.82;100.00;98962.59;1686451;83;21016;-58
2022/09/16 10:45:55;;;;;;;7.80;6.87;;;;;;;26.55;100.00;98959.78;1685685;85;20960;-58
2022/09/16 10:48:29;;;;;;;9.53;7.20;;;;;;;26.48;100.00;98964.86;1686139;85;21077;-68
2022/09/16 10:51:01;;;;;;;8.35;7.12;;;;;;;26.40;100.00;98958.41;1686543;85;21388;-58
2022/09/16 10:53:39;;;;;;;9.08;7.85;;;;;;;26.38;100.00;98951.25;1685707;85;21126;-58
2022/09/16 10:56:18;;;;;;;8.45;6.97;;;;;;;26.36;100.00;98953.45;1686135;85;21475;-62
2022/09/16 10:58:45;;;;;;;8.53;7.33;;;;;;;26.28;100.00;98946.25;1686179;85;21114;-58
2022/09/16 11:01:26;;;;;;;7.87;6.30;;;;;;;26.24;100.00;98945.31;1685248;85;21051;-59
2022/09/16 11:04:23;;;;;;;7.40;6.70;;;;;;;26.25;100.00;98942.88;1668856;85;21226;-64
2022/09/16 11:07:14;;;;;;;7.70;6.87;;;;;;;26.29;100.00;98940.34;1685971;85;21027;-63
2022/09/16 11:10:03;;;;;;;8.80;6.85;;;;;;;26.37;100.00;98940.34;1686426;83;21026;-58
2022/09/16 11:12:51;;;;;;;8.78;6.47;;;;;;;26.49;100.00;98938.92;1686197;85;21302;-58
2022/09/16 11:15:49;;;;;;;7.85;7.05;;;;;;;26.60;100.00;98937.45;1687316;83;21110;-69
2022/09/16 11:18:44;;;;;;;6.58;5.87;;;;;;;26.63;100.00;98931.45;1686388;85;21256;-62
2022/09/16 11:21:31;;;;;;;7.15;6.33;;;;;;;26.64;100.00;98931.70;1686133;85;21467;-57
2022/09/16 11:24:57;;;;;;;8.05;6.80;;;;;;;26.67;100.00;98916.36;1685934;85;21003;-56
2022/09/16 11:27:54;;;;;;;9.18;6.00;;;;;;;26.66;100.00;98920.89;1686210;85;21022;-66
2022/09/16 11:30:21;;;;;;;8.18;6.55;;;;;;;26.78;100.00;98908.17;1664146;85;21584;-66
2022/09/16 11:33:21;;;;;;;8.23;6.60;;;;;;;26.87;100.00;98912.94;1685882;85;21776;-57
2022/09/16 11:36:39;;;;;;;6.42;5.78;;;;;;;27.05;100.00;98906.13;1686107;85;20944;-57
2022/09/16 11:39:27;;;;;;;7.60;6.45;;;;;;;27.09;100.00;98912.41;1686471;85;20979;-57
2022/09/16 11:42:11;;;;;;;7.83;6.62;;;;;;;27.13;100.00;98919.48;1685781;85;21339;-66
2022/09/16 11:45:13;;;;;;;7.78;6.67;;;;;;;27.13;100.00;98918.15;1686379;85;20991;-60
2022/09/16 11:48:16;;;;;;;7.42;6.72;;;;;;;27.07;100.00;98911.94;1686031;85;21804;-58
2022/09/16 11:51:05;;;;;;;7.75;7.00;;;;;;;26.88;100.00;98915.83;1686368;83;21090;-62